createdAt,value
2022-09-24T00:00:40.706Z,21.4
2022-09-24T00:01:43.034Z,21.5
2022-09-24T00:02:45.622Z,21.4
2022-09-24T00:03:48.108Z,21.5
2022-09-24T00:04:50.296Z,21.5
2022-09-24T00:05:52.774Z,21.4
2022-09-24T00:06:54.992Z,21.4
2022-09-24T00:07:57.551Z,21.5
2022-09-24T00:08:59.746Z,21.4
2022-09-24T00:10:02.017Z,21.5
2022-09-24T00:11:04.485Z,21.6
2022-09-24T00:12:06.993Z,21.5
2022-09-24T00:13:08.912Z,21.4
2022-09-24T00:14:11.523Z,21.5
2022-09-24T00:15:13.543Z,21.4
2022-09-24T00:16:16.171Z,21.5
2022-09-24T00:17:18.713Z,21.5
2022-09-24T00:18:20.951Z,21.6
2022-09-24T00:19:23.138Z,21.6
2022-09-24T00:20:25.065Z,21.6
2022-09-24T00:21:26.419Z,21.5
2022-09-24T00:22:28.921Z,21.5
2022-09-24T00:23:31.387Z,21.5
2022-09-24T00:24:33.865Z,21.5
2022-09-24T00:25:36.386Z,21.6
2022-09-24T00:26:38.852Z,21.5
2022-09-24T00:27:40.828Z,21.6
2022-09-24T00:28:43.026Z,21.5
2022-09-24T00:29:45.492Z,21.5
2022-09-24T00:30:47.976Z,21.5
2022-09-24T00:31:50.047Z,21.6
2022-09-24T00:32:52.580Z,21.5
2022-09-24T00:33:55.061Z,21.6
2022-09-24T00:34:57.537Z,21.6
2022-09-24T00:36:00.002Z,21.5
2022-09-24T00:37:02.234Z,21.6
2022-09-24T00:38:04.468Z,21.6
2022-09-24T00:39:06.949Z,21.6
2022-09-24T00:40:09.529Z,21.5
2022-09-24T00:41:11.833Z,21.5
2022-09-24T00:42:14.296Z,21.6
2022-09-24T00:43:16.540Z,21.6
2022-09-24T00:44:19.026Z,21.6
2022-09-24T00:45:21.217Z,21.6
2022-09-24T00:46:23.862Z,21.7
2022-09-24T00:47:26.251Z,21.5
2022-09-24T00:48:28.458Z,21.6
2022-09-24T00:49:30.918Z,21.6
2022-09-24T00:50:33.395Z,21.7
2022-09-24T00:51:35.609Z,21.6
2022-09-24T00:52:38.084Z,21.7
2022-09-24T00:53:40.023Z,21.6
2022-09-24T00:54:42.238Z,21.6
2022-09-24T00:55:44.444Z,21.5
2022-09-24T00:56:47.055Z,21.5
2022-09-24T00:57:48.942Z,21.6
2022-09-24T00:58:51.182Z,21.7
2022-09-24T00:59:53.120Z,21.6
2022-09-24T01:00:55.697Z,21.6
2022-09-24T01:01:58.537Z,21.6
2022-09-24T01:03:01.544Z,21.6
2022-09-24T01:04:03.786Z,21.7
2022-09-24T01:05:06.254Z,21.6
2022-09-24T01:06:08.443Z,21.6
2022-09-24T01:07:10.948Z,21.6
2022-09-24T01:08:13.416Z,21.7
2022-09-24T01:09:15.908Z,21.6
2022-09-24T01:10:18.102Z,21.6
2022-09-24T01:11:20.295Z,21.7
2022-09-24T01:12:22.816Z,21.7
2022-09-24T01:13:25.012Z,21.6
2022-09-24T01:14:26.996Z,21.7
2022-09-24T01:15:29.198Z,21.5
2022-09-24T01:16:31.364Z,21.6
2022-09-24T01:17:33.899Z,21.7
2022-09-24T01:18:36.398Z,21.8
2022-09-24T01:19:38.890Z,21.7
2022-09-24T01:20:41.374Z,21.6
2022-09-24T01:21:43.849Z,21.7
2022-09-24T01:22:46.041Z,21.6
2022-09-24T01:23:49.405Z,21.6
2022-09-24T01:24:51.923Z,21.7
2022-09-24T01:25:54.113Z,21.6
2022-09-24T01:26:56.584Z,21.7
2022-09-24T01:27:58.517Z,21.7
2022-09-24T01:29:00.993Z,21.7
2022-09-24T01:30:03.505Z,21.7
2022-09-24T01:31:05.553Z,21.7
2022-09-24T01:32:08.301Z,21.6
2022-09-24T01:33:10.768Z,21.7
2022-09-24T01:34:12.694Z,21.7
2022-09-24T01:35:15.162Z,21.8
2022-09-24T01:36:17.645Z,21.7
2022-09-24T01:37:19.810Z,21.7
2022-09-24T01:38:22.009Z,21.7
2022-09-24T01:39:24.213Z,21.7
2022-09-24T01:40:26.493Z,21.6
2022-09-24T01:41:28.986Z,21.7
2022-09-24T01:42:31.451Z,21.7
2022-09-24T01:43:33.694Z,21.7
2022-09-24T01:44:36.164Z,21.8
2022-09-24T01:45:38.393Z,21.8
2022-09-24T01:46:41.042Z,21.7
2022-09-24T01:47:43.684Z,21.7
2022-09-24T01:48:45.902Z,21.7
2022-09-24T01:49:48.099Z,21.7
2022-09-24T01:50:50.288Z,21.7
2022-09-24T01:51:52.486Z,21.7
2022-09-24T01:52:54.950Z,21.7
2022-09-24T01:53:57.147Z,21.6
2022-09-24T01:54:59.352Z,21.7
2022-09-24T01:56:01.842Z,21.6
2022-09-24T01:57:03.738Z,21.7
2022-09-24T01:58:05.931Z,21.8
2022-09-24T01:59:08.177Z,21.7
2022-09-24T02:00:10.654Z,21.8
2022-09-24T02:01:13.302Z,21.7
2022-09-24T02:02:15.641Z,21.8
2022-09-24T02:03:18.446Z,21.7
2022-09-24T02:04:20.931Z,21.7
2022-09-24T02:05:23.128Z,21.7
2022-09-24T02:06:25.051Z,21.7
2022-09-24T02:07:27.249Z,21.7
2022-09-24T02:08:29.722Z,21.7
2022-09-24T02:09:31.891Z,21.7
2022-09-24T02:10:33.813Z,21.8
2022-09-24T02:11:36.302Z,21.7
2022-09-24T02:12:38.815Z,21.8
2022-09-24T02:13:41.007Z,21.7
2022-09-24T02:14:42.952Z,21.8
2022-09-24T02:15:45.221Z,21.8
2022-09-24T02:16:47.953Z,21.7
2022-09-24T02:17:50.156Z,21.7
2022-09-24T02:18:52.365Z,21.7
2022-09-24T02:19:54.277Z,21.9
2022-09-24T02:20:56.458Z,21.7
2022-09-24T02:21:58.934Z,21.7
2022-09-24T02:23:01.423Z,21.7
2022-09-24T02:24:03.892Z,21.7
2022-09-24T02:25:06.215Z,21.8
2022-09-24T02:26:07.554Z,21.8
2022-09-24T02:27:09.479Z,21.8
2022-09-24T02:28:11.955Z,21.7
2022-09-24T02:29:13.592Z,21.8
2022-09-24T02:30:15.849Z,21.8
2022-09-24T02:31:18.208Z,21.7
2022-09-24T02:32:20.997Z,21.7
2022-09-24T02:33:23.460Z,21.8
2022-09-24T02:34:25.687Z,21.8
2022-09-24T02:35:27.888Z,21.8
2022-09-24T02:36:30.356Z,21.8
2022-09-24T02:37:32.830Z,21.7
2022-09-24T02:38:34.749Z,21.8
2022-09-24T02:39:36.658Z,21.8
2022-09-24T02:40:38.702Z,21.8
2022-09-24T02:41:41.174Z,21.8
2022-09-24T02:42:43.691Z,21.7
2022-09-24T02:43:45.884Z,21.8
2022-09-24T02:44:48.361Z,21.8
2022-09-24T02:45:50.604Z,21.7
2022-09-24T02:46:53.307Z,21.8
2022-09-24T02:47:56.187Z,21.8
2022-09-24T02:48:58.394Z,21.7
2022-09-24T02:50:00.891Z,21.8
2022-09-24T02:51:03.074Z,21.9
2022-09-24T02:52:04.987Z,21.8
2022-09-24T02:53:07.463Z,21.8
2022-09-24T02:54:09.999Z,21.7
2022-09-24T02:55:12.285Z,21.9
2022-09-24T02:56:14.780Z,21.7
2022-09-24T02:57:17.254Z,21.8
2022-09-24T02:58:19.826Z,21.9
2022-09-24T02:59:22.040Z,21.8
2022-09-24T03:00:24.226Z,21.9
2022-09-24T03:01:26.881Z,21.7
2022-09-24T03:02:29.487Z,21.8
2022-09-24T03:03:32.458Z,21.8
2022-09-24T03:04:34.929Z,21.8
2022-09-24T03:05:37.130Z,21.7
2022-09-24T03:06:39.321Z,21.8
2022-09-24T03:07:41.250Z,21.9
2022-09-24T03:08:43.729Z,21.7
2022-09-24T03:09:45.938Z,21.7
2022-09-24T03:10:47.849Z,21.6
2022-09-24T03:11:50.325Z,21.5
2022-09-24T03:12:52.796Z,21.6
2022-09-24T03:13:55.288Z,21.5
2022-09-24T03:14:57.765Z,21.6
2022-09-24T03:16:00.109Z,21.7
2022-09-24T03:17:03.000Z,21.7
2022-09-24T03:18:05.175Z,21.6
2022-09-24T03:19:07.220Z,21.6
2022-09-24T03:20:09.419Z,21.6
2022-09-24T03:21:11.613Z,21.6
2022-09-24T03:22:13.822Z,21.6
2022-09-24T03:23:16.001Z,21.6
2022-09-24T03:24:18.180Z,21.6
2022-09-24T03:25:20.481Z,21.6
2022-09-24T03:26:22.689Z,21.4
2022-09-24T03:27:24.892Z,21.6
2022-09-24T03:28:27.091Z,21.5
2022-09-24T03:29:29.584Z,21.4
2022-09-24T03:30:31.777Z,21.6
2022-09-24T03:31:34.454Z,21.5
2022-09-24T03:32:37.315Z,21.5
2022-09-24T03:33:39.513Z,21.5
2022-09-24T03:34:41.745Z,21.4
2022-09-24T03:35:43.668Z,21.5
2022-09-24T03:36:45.284Z,21.4
2022-09-24T03:38:52.198Z,21.5
2022-09-24T03:39:54.677Z,21.4
2022-09-24T03:40:57.318Z,21.4
2022-09-24T03:41:59.734Z,21.5
2022-09-24T03:43:02.205Z,21.4
2022-09-24T03:44:04.775Z,21.4
2022-09-24T03:45:07.179Z,21.3
2022-09-24T03:46:09.587Z,21.4
2022-09-24T03:47:11.942Z,21.4
2022-09-24T03:48:14.487Z,21.4
2022-09-24T03:49:16.953Z,21.3
2022-09-24T03:50:19.489Z,21.4
2022-09-24T03:51:21.954Z,21.4
2022-09-24T03:52:24.143Z,21.3
2022-09-24T03:53:26.345Z,21.5
2022-09-24T03:54:28.548Z,21.4
2022-09-24T03:55:30.749Z,21.4
2022-09-24T03:56:32.941Z,21.4
2022-09-24T03:57:34.847Z,21.4
2022-09-24T03:58:36.764Z,21.3
2022-09-24T03:59:39.234Z,21.4
2022-09-24T04:00:41.909Z,21.3
2022-09-24T04:01:44.222Z,21.4
2022-09-24T04:02:46.475Z,21.3
2022-09-24T04:03:48.472Z,21.3
2022-09-24T04:04:50.952Z,21.3
2022-09-24T04:05:53.268Z,21.4
2022-09-24T04:06:55.773Z,21.3
2022-09-24T04:07:57.964Z,21.3
2022-09-24T04:09:00.164Z,21.4
2022-09-24T04:10:02.636Z,21.3
2022-09-24T04:11:05.112Z,21.4
2022-09-24T04:12:07.592Z,21.2
2022-09-24T04:13:10.085Z,21.4
2022-09-24T04:14:11.901Z,21.4
2022-09-24T04:15:14.143Z,21.3
2022-09-24T04:16:16.529Z,21.3
2022-09-24T04:17:19.304Z,21.4
2022-09-24T04:18:21.776Z,21.3
2022-09-24T04:19:24.053Z,21.3
2022-09-24T04:20:26.529Z,21.3
2022-09-24T04:21:29.059Z,21.3
2022-09-24T04:22:31.235Z,21.3
2022-09-24T04:23:33.759Z,21.3
2022-09-24T04:24:35.660Z,21.3
2022-09-24T04:25:38.139Z,21.4
2022-09-24T04:26:40.330Z,21.3
2022-09-24T04:27:42.508Z,21.3
2022-09-24T04:28:44.975Z,21.3
2022-09-24T04:29:47.449Z,21.3
2022-09-24T04:30:49.219Z,21.2
2022-09-24T04:31:51.918Z,21.3
2022-09-24T04:32:54.951Z,21.3
2022-09-24T04:33:57.165Z,21.2
2022-09-24T04:35:05.460Z,21.3
2022-09-24T04:36:07.066Z,21.4
2022-09-24T04:37:09.387Z,21.3
2022-09-24T04:38:11.863Z,21.3
2022-09-24T04:39:14.335Z,21.4
2022-09-24T04:40:16.947Z,21.2
2022-09-24T04:41:19.754Z,21.2
2022-09-24T04:42:21.958Z,21.3
2022-09-24T04:43:24.156Z,21.3
2022-09-24T04:44:26.649Z,21.2
2022-09-24T04:45:28.855Z,21.3
2022-09-24T04:46:31.507Z,21.2
2022-09-24T04:47:34.484Z,21.2
2022-09-24T04:48:36.951Z,21.3
2022-09-24T04:49:39.488Z,21.2
2022-09-24T04:51:46.717Z,21.2
2022-09-24T04:52:49.236Z,21.2
2022-09-24T04:53:51.459Z,21.3
2022-09-24T04:54:53.665Z,21.2
2022-09-24T04:55:55.886Z,21.3
2022-09-24T04:56:58.396Z,21.3
2022-09-24T04:58:00.304Z,21.2
2022-09-24T04:59:02.150Z,21.3
2022-09-24T05:00:04.586Z,21.2
2022-09-24T05:01:06.228Z,21.3
2022-09-24T05:02:10.448Z,21.3
2022-09-24T05:03:13.663Z,21.2
2022-09-24T05:04:16.501Z,21.2
2022-09-24T05:05:18.439Z,21.2
2022-09-24T05:06:22.516Z,21.2
2022-09-24T05:07:24.501Z,21.2
2022-09-24T05:08:27.101Z,21.2
2022-09-24T05:09:28.770Z,21.3
2022-09-24T05:10:31.251Z,21.2
2022-09-24T05:11:33.733Z,21.3
2022-09-24T05:12:36.215Z,21.3
2022-09-24T05:13:38.754Z,21.2
2022-09-24T05:14:41.236Z,21.2
2022-09-24T05:15:44.147Z,21.3
2022-09-24T05:16:46.938Z,21.3
2022-09-24T05:17:49.189Z,21.2
2022-09-24T05:18:51.409Z,21.2
2022-09-24T05:19:53.338Z,21.2
2022-09-24T05:20:55.542Z,21.2
2022-09-24T05:21:57.828Z,21.2
2022-09-24T05:23:00.104Z,21.3
2022-09-24T05:24:02.780Z,21.2
2022-09-24T05:25:05.304Z,21.2
2022-09-24T05:26:07.780Z,21.2
2022-09-24T05:27:09.718Z,21.3
2022-09-24T05:28:11.937Z,21.2
2022-09-24T05:29:14.141Z,21.3
2022-09-24T05:30:16.355Z,21.1
2022-09-24T05:31:18.438Z,21.3
2022-09-24T05:32:20.582Z,21.3
2022-09-24T05:33:23.074Z,21.1
2022-09-24T05:34:25.572Z,21.2
2022-09-24T05:35:27.502Z,21.3
2022-09-24T05:36:29.424Z,21.1
2022-09-24T05:37:31.925Z,21.2
2022-09-24T05:38:34.430Z,21.2
2022-09-24T05:39:41.444Z,21.2
2022-09-24T05:40:43.647Z,21.2
2022-09-24T05:41:46.375Z,21.3
2022-09-24T05:42:48.561Z,21.2
2022-09-24T05:43:50.576Z,21.1
2022-09-24T05:44:53.083Z,21.1
2022-09-24T05:45:55.316Z,21.2
2022-09-24T05:46:57.792Z,21.2
2022-09-24T05:48:00.640Z,21.2
2022-09-24T05:49:02.940Z,21.2
2022-09-24T05:50:05.480Z,21.1
2022-09-24T05:51:07.140Z,21.2
2022-09-24T05:52:09.080Z,21.1
2022-09-24T05:53:11.196Z,21.2
2022-09-24T05:54:13.407Z,21.2
2022-09-24T05:55:15.664Z,21.1
2022-09-24T05:56:18.192Z,21.2
2022-09-24T05:57:20.666Z,21.1
2022-09-24T05:58:22.578Z,21.2
2022-09-24T05:59:24.779Z,21.1
2022-09-24T06:00:26.942Z,21.1
2022-09-24T06:01:29.429Z,21.2
2022-09-24T06:02:31.709Z,21.2
2022-09-24T06:03:34.630Z,21.1
2022-09-24T06:04:36.589Z,21.2
2022-09-24T06:05:39.103Z,21.1
2022-09-24T06:06:41.602Z,21.2
2022-09-24T06:07:44.088Z,21.2
2022-09-24T06:08:46.312Z,21.2
2022-09-24T06:09:48.542Z,21.1
2022-09-24T06:10:50.921Z,21.2
2022-09-24T06:11:53.406Z,21.2
2022-09-24T06:12:55.064Z,21.2
2022-09-24T06:13:57.284Z,21.2
2022-09-24T06:14:59.479Z,21.3
2022-09-24T06:16:01.578Z,21.2
2022-09-24T06:17:03.958Z,21.1
2022-09-24T06:18:06.253Z,21.2
2022-09-24T06:19:08.926Z,21.2
2022-09-24T06:20:11.316Z,21.2
2022-09-24T06:21:13.362Z,21.2
2022-09-24T06:22:15.840Z,21.2
2022-09-24T06:23:18.055Z,21.2
2022-09-24T06:24:20.276Z,21.2
2022-09-24T06:25:22.281Z,21.2
2022-09-24T06:26:24.514Z,21.2
2022-09-24T06:27:26.709Z,21.1
2022-09-24T06:28:29.188Z,21.1
2022-09-24T06:29:31.651Z,21.2
2022-09-24T06:30:34.139Z,21.2
2022-09-24T06:31:35.859Z,21.2
2022-09-24T06:32:38.756Z,21.1
2022-09-24T06:33:40.672Z,21.2
2022-09-24T06:34:42.897Z,21.2
2022-09-24T06:35:45.115Z,21.1
2022-09-24T06:36:47.421Z,21.1
2022-09-24T06:37:49.893Z,21.1
2022-09-24T06:38:51.802Z,21.1
2022-09-24T06:39:54.000Z,21.1
2022-09-24T06:40:56.298Z,21.1
2022-09-24T06:41:58.980Z,21.1
2022-09-24T06:43:01.157Z,21.2
2022-09-24T06:44:03.103Z,21.1
2022-09-24T06:45:05.568Z,21.1
2022-09-24T06:46:07.955Z,21.1
2022-09-24T06:47:10.133Z,21.1
2022-09-24T06:48:12.313Z,21.2
2022-09-24T06:49:14.513Z,21.1
2022-09-24T06:50:16.164Z,21.2
2022-09-24T06:51:18.684Z,21.2
2022-09-24T06:52:20.724Z,21.1
2022-09-24T06:53:22.638Z,21.1
2022-09-24T06:54:24.582Z,21.2
2022-09-24T06:55:27.078Z,21.2
2022-09-24T06:56:29.310Z,21.1
2022-09-24T06:57:31.821Z,21.1
2022-09-24T06:58:34.314Z,21.2
2022-09-24T06:59:36.793Z,21.1
2022-09-24T07:00:38.885Z,21.1
2022-09-24T07:01:41.847Z,21.2
2022-09-24T07:02:44.102Z,21.2
2022-09-24T07:03:46.576Z,21.1
2022-09-24T07:04:49.087Z,21.2
2022-09-24T07:05:51.298Z,21.1
2022-09-24T07:06:53.508Z,21.1
2022-09-24T07:07:55.733Z,21.1
2022-09-24T07:08:58.215Z,21.1
2022-09-24T07:10:00.429Z,21.1
2022-09-24T07:11:02.657Z,21.2
2022-09-24T07:12:04.884Z,21.1
2022-09-24T07:13:07.409Z,21.1
2022-09-24T07:14:09.610Z,21
2022-09-24T07:15:11.794Z,21.1
2022-09-24T07:16:14.389Z,21.1
2022-09-24T07:17:16.799Z,21.1
2022-09-24T07:18:18.999Z,21.1
2022-09-24T07:19:20.922Z,21.1
2022-09-24T07:20:23.258Z,21.1
2022-09-24T07:21:25.273Z,21.1
2022-09-24T07:22:27.487Z,21.2
2022-09-24T07:23:29.988Z,21.1
2022-09-24T07:24:32.478Z,21.1
2022-09-24T07:25:34.696Z,21.1
2022-09-24T07:26:37.271Z,21.1
2022-09-24T07:27:39.468Z,21.2
2022-09-24T07:28:41.990Z,21.2
2022-09-24T07:29:44.184Z,21.1
2022-09-24T07:30:46.393Z,21.1
2022-09-24T07:31:49.110Z,21.1
2022-09-24T07:32:51.621Z,21.2
2022-09-24T07:33:54.112Z,21.1
2022-09-24T07:34:56.595Z,21
2022-09-24T07:35:59.063Z,21.1
2022-09-24T07:37:01.272Z,21.1
2022-09-24T07:38:03.781Z,21
2022-09-24T07:39:05.736Z,21.2
2022-09-24T07:40:08.343Z,21.1
2022-09-24T07:41:11.057Z,21
2022-09-24T07:42:13.394Z,21
2022-09-24T07:43:15.434Z,21.1
2022-09-24T07:44:17.695Z,21.1
2022-09-24T07:45:19.902Z,21.2
2022-09-24T07:46:22.230Z,21.1
2022-09-24T07:47:24.920Z,21.1
2022-09-24T07:48:41.213Z,21.1
2022-09-24T07:49:43.425Z,21.2
2022-09-24T07:50:45.627Z,21.1
2022-09-24T07:51:47.295Z,21
2022-09-24T07:52:49.225Z,21.1
2022-09-24T07:53:51.695Z,21.2
2022-09-24T07:54:53.706Z,21.2
2022-09-24T07:55:55.622Z,21.1
2022-09-24T07:56:57.829Z,21.2
2022-09-24T07:58:00.023Z,21.1
2022-09-24T07:59:02.538Z,21.1
2022-09-24T08:00:05.136Z,21.1
2022-09-24T08:01:07.666Z,21
2022-09-24T08:02:09.969Z,21.1
2022-09-24T08:03:12.548Z,21.2
2022-09-24T08:04:15.203Z,21.1
2022-09-24T08:05:17.343Z,21.1
2022-09-24T08:06:19.621Z,21.2
2022-09-24T08:07:21.818Z,21.1
2022-09-24T08:08:24.014Z,21.1
2022-09-24T08:09:26.203Z,21.1
2022-09-24T08:10:28.441Z,21.1
2022-09-24T08:11:30.941Z,21.1
2022-09-24T08:12:33.153Z,21.2
2022-09-24T08:13:35.154Z,21
2022-09-24T08:14:37.100Z,21.1
2022-09-24T08:15:39.605Z,21.1
2022-09-24T08:16:42.368Z,20.9
2022-09-24T08:17:44.299Z,21
2022-09-24T08:18:45.932Z,21.1
2022-09-24T08:19:48.417Z,21
2022-09-24T08:20:50.896Z,21
2022-09-24T08:21:53.429Z,21
2022-09-24T08:22:55.643Z,21.2
2022-09-24T08:23:58.110Z,21
2022-09-24T08:25:00.589Z,21.1
2022-09-24T08:26:03.092Z,21.1
2022-09-24T08:27:04.870Z,21.1
2022-09-24T08:28:07.054Z,21
2022-09-24T08:29:09.282Z,21
2022-09-24T08:30:11.489Z,21.1
2022-09-24T08:31:14.247Z,21.1
2022-09-24T08:32:16.517Z,21.1
2022-09-24T08:33:18.428Z,21.1
2022-09-24T08:34:20.624Z,21.1
2022-09-24T08:35:22.538Z,21
2022-09-24T08:36:24.482Z,21.1
2022-09-24T08:37:26.385Z,21
2022-09-24T08:38:28.578Z,21.1
2022-09-24T08:39:31.091Z,21
2022-09-24T08:40:33.441Z,21.2
2022-09-24T08:41:36.390Z,21
2022-09-24T08:42:38.621Z,21.2
2022-09-24T08:43:41.095Z,21.1
2022-09-24T08:44:43.317Z,21.1
2022-09-24T08:45:45.542Z,21
2022-09-24T08:46:47.880Z,21.1
2022-09-24T08:47:50.653Z,21.1
2022-09-24T08:48:52.006Z,21.1
2022-09-24T08:49:54.213Z,21
2022-09-24T08:50:56.407Z,21
2022-09-24T08:51:58.325Z,21.1
2022-09-24T08:53:00.533Z,21.1
2022-09-24T08:54:03.113Z,21.2
2022-09-24T08:55:05.436Z,21.2
2022-09-24T08:56:07.914Z,21
2022-09-24T08:57:10.401Z,21.1
2022-09-24T08:58:12.314Z,21
2022-09-24T08:59:14.799Z,21.1
2022-09-24T09:00:17.325Z,21.1
2022-09-24T09:01:19.709Z,21
2022-09-24T09:02:23.176Z,21
2022-09-24T09:03:26.009Z,21
2022-09-24T09:04:28.494Z,21
2022-09-24T09:05:30.961Z,21
2022-09-24T09:06:32.922Z,21
2022-09-24T09:07:34.814Z,21.1
2022-09-24T09:09:42.013Z,21.1
2022-09-24T09:10:43.951Z,21.1
2022-09-24T09:11:46.426Z,21
2022-09-24T09:12:48.636Z,21.1
2022-09-24T09:13:50.806Z,21
2022-09-24T09:14:53.277Z,21
2022-09-24T09:15:55.416Z,21
2022-09-24T09:16:57.780Z,21
2022-09-24T09:18:00.331Z,21.1
2022-09-24T09:19:02.656Z,21
2022-09-24T09:20:05.156Z,21.2
2022-09-24T09:21:07.642Z,21.1
2022-09-24T09:22:10.133Z,21
2022-09-24T09:23:12.334Z,21.1
2022-09-24T09:24:14.528Z,21
2022-09-24T09:25:16.719Z,21
2022-09-24T09:26:19.191Z,21.1
2022-09-24T09:27:21.407Z,21
2022-09-24T09:28:23.643Z,21.1
2022-09-24T09:29:26.126Z,21
2022-09-24T09:30:28.042Z,21
2022-09-24T09:31:30.248Z,21.1
2022-09-24T09:32:33.151Z,21
2022-09-24T09:33:35.748Z,21.1
2022-09-24T09:34:37.946Z,21.1
2022-09-24T09:35:39.865Z,21
2022-09-24T09:36:42.046Z,21
2022-09-24T09:37:44.270Z,21.1
2022-09-24T09:38:46.461Z,21
2022-09-24T09:39:48.387Z,21
2022-09-24T09:40:51.087Z,21
2022-09-24T09:41:53.868Z,21
2022-09-24T09:42:56.067Z,21
2022-09-24T09:43:58.652Z,21
2022-09-24T09:45:00.863Z,21.3
2022-09-24T09:46:02.936Z,21
2022-09-24T09:47:05.557Z,21
2022-09-24T09:48:07.507Z,21
2022-09-24T09:49:09.754Z,21.1
2022-09-24T09:50:11.695Z,20.9
2022-09-24T09:51:13.891Z,21.1
2022-09-24T09:52:19.862Z,21
2022-09-24T09:53:22.384Z,21
2022-09-24T09:54:24.583Z,21.1
2022-09-24T09:55:27.052Z,21.1
2022-09-24T09:56:29.235Z,21.1
2022-09-24T09:57:31.721Z,21
2022-09-24T09:58:33.890Z,21
2022-09-24T09:59:36.110Z,21
2022-09-24T10:00:38.320Z,21
2022-09-24T10:01:40.514Z,21
2022-09-24T10:02:44.123Z,21.1
2022-09-24T10:03:46.865Z,21
2022-09-24T10:05:54.369Z,21
2022-09-24T10:06:56.903Z,20.9
2022-09-24T10:07:59.091Z,21
2022-09-24T10:09:01.297Z,21.1
2022-09-24T10:10:03.484Z,21.1
2022-09-24T10:11:05.554Z,21
2022-09-24T10:12:07.901Z,21
2022-09-24T10:13:10.221Z,21.1
2022-09-24T10:14:12.903Z,21
2022-09-24T10:15:15.161Z,21
2022-09-24T10:16:17.293Z,21
2022-09-24T10:17:20.051Z,21
2022-09-24T10:18:22.564Z,21
2022-09-24T10:19:24.804Z,21.1
2022-09-24T10:20:27.398Z,21
2022-09-24T10:21:29.603Z,21
2022-09-24T10:22:31.810Z,21.1
2022-09-24T10:23:33.993Z,21.1
2022-09-24T10:24:36.216Z,21.1
2022-09-24T10:25:38.409Z,21.2
2022-09-24T10:27:45.872Z,21.2
2022-09-24T10:28:48.351Z,21.2
2022-09-24T10:29:50.560Z,21.2
2022-09-24T10:30:53.141Z,21
2022-09-24T10:31:55.981Z,21.1
2022-09-24T10:32:58.171Z,21.1
2022-09-24T10:34:00.419Z,21.2
2022-09-24T10:35:02.571Z,21.1
2022-09-24T10:36:05.214Z,21.2
2022-09-24T10:38:12.688Z,21.2
2022-09-24T10:39:15.181Z,21.1
2022-09-24T10:40:17.473Z,21.2
2022-09-24T10:41:19.945Z,21.2
2022-09-24T10:42:22.416Z,21.2
2022-09-24T10:43:24.977Z,21.1
2022-09-24T10:44:27.178Z,21.2
2022-09-24T10:45:29.091Z,21.2
2022-09-24T10:46:31.149Z,21.3
2022-09-24T10:47:33.887Z,21.3
2022-09-24T10:48:36.365Z,21.2
2022-09-24T10:49:38.326Z,21.3
2022-09-24T10:50:40.270Z,21.3
2022-09-24T10:51:42.789Z,21.3
2022-09-24T10:52:45.023Z,21.3
2022-09-24T10:53:46.995Z,21.3
2022-09-24T10:54:49.469Z,21.3
2022-09-24T10:55:51.418Z,21.4
2022-09-24T10:56:53.900Z,21.3
2022-09-24T10:57:56.378Z,21.4
2022-09-24T10:58:58.282Z,21.3
2022-09-24T11:00:00.489Z,21.4
2022-09-24T11:01:02.974Z,21.4
2022-09-24T11:02:05.705Z,21.4
2022-09-24T11:03:08.839Z,21.5
2022-09-24T11:04:11.709Z,21.3
2022-09-24T11:05:13.726Z,21.3
2022-09-24T11:06:16.236Z,21.5
2022-09-24T11:07:18.742Z,21.4
2022-09-24T11:08:20.958Z,21.4
2022-09-24T11:09:23.158Z,21.4
2022-09-24T11:10:25.365Z,21.4
2022-09-24T11:11:27.555Z,21.4
2022-09-24T11:12:29.760Z,21.4
2022-09-24T11:13:31.677Z,21.5
2022-09-24T11:14:33.883Z,21.5
2022-09-24T11:15:36.530Z,21.4
2022-09-24T11:16:39.216Z,21.4
2022-09-24T11:17:41.741Z,21.3
2022-09-24T11:18:43.950Z,21.4
2022-09-24T11:19:46.444Z,21.3
2022-09-24T11:20:48.716Z,21.3
2022-09-24T11:21:50.980Z,21.3
2022-09-24T11:22:53.408Z,21.4
2022-09-24T11:23:55.882Z,21.4
2022-09-24T11:24:58.088Z,21.4
2022-09-24T11:26:00.287Z,21.3
2022-09-24T11:27:02.771Z,21.4
2022-09-24T11:28:04.407Z,21.4
2022-09-24T11:29:07.116Z,21.3
2022-09-24T11:30:09.329Z,21.4
2022-09-24T11:31:11.613Z,21.3
2022-09-24T11:32:13.793Z,21.3
2022-09-24T11:34:21.285Z,21.3
2022-09-24T11:35:23.206Z,21.3
2022-09-24T11:36:25.446Z,21.2
2022-09-24T11:37:27.685Z,21.4
2022-09-24T11:38:30.281Z,21.3
2022-09-24T11:39:32.230Z,21.3
2022-09-24T11:40:34.967Z,21.3
2022-09-24T11:41:37.757Z,21.3
2022-09-24T11:42:39.936Z,21.3
2022-09-24T11:43:41.889Z,21.3
2022-09-24T11:44:44.156Z,21.3
2022-09-24T11:45:46.647Z,21.4
2022-09-24T11:46:49.348Z,21.2
2022-09-24T11:47:51.937Z,21.3
2022-09-24T11:48:54.212Z,21.4
2022-09-24T11:49:56.738Z,21.4
2022-09-24T11:50:59.281Z,21.3
2022-09-24T11:52:01.591Z,21.3
2022-09-24T11:53:03.352Z,21.3
2022-09-24T11:54:06.092Z,21.2
2022-09-24T11:55:08.454Z,21.2
2022-09-24T11:57:16.192Z,21.3
2022-09-24T11:58:18.437Z,21.1
2022-09-24T11:59:20.358Z,21.1
2022-09-24T12:00:22.373Z,21.2
2022-09-24T12:01:24.624Z,21.3
2022-09-24T12:02:27.067Z,21.2
2022-09-24T12:03:30.192Z,21.2
2022-09-24T12:04:32.468Z,21.3
2022-09-24T12:05:34.659Z,21.2
2022-09-24T12:06:36.878Z,21.2
2022-09-24T12:07:38.949Z,21.2
2022-09-24T12:08:41.465Z,21.4
2022-09-24T12:09:43.975Z,21.3
2022-09-24T12:10:45.908Z,21.3
2022-09-24T12:11:48.108Z,21.3
2022-09-24T12:12:50.345Z,21.4
2022-09-24T12:13:52.560Z,21.5
2022-09-24T12:14:55.048Z,21.3
2022-09-24T12:15:57.326Z,21.4
2022-09-24T12:16:59.795Z,21.4
2022-09-24T12:18:02.280Z,21.3
2022-09-24T12:19:04.753Z,21.4
2022-09-24T12:20:07.249Z,21.4
2022-09-24T12:21:09.724Z,21.4
2022-09-24T12:22:11.920Z,21.4
2022-09-24T12:23:14.428Z,21.4
2022-09-24T12:24:16.439Z,21.4
2022-09-24T12:25:18.948Z,21.3
2022-09-24T12:26:21.143Z,21.3
2022-09-24T12:27:23.345Z,21.3
2022-09-24T12:28:26.189Z,21.4
2022-09-24T12:29:28.908Z,21.4
2022-09-24T12:30:31.120Z,21.3
2022-09-24T12:31:33.197Z,21.2
2022-09-24T12:32:35.930Z,21.3
2022-09-24T12:33:37.847Z,21.3
2022-09-24T12:34:40.348Z,21.5
2022-09-24T12:35:42.859Z,21.4
2022-09-24T12:36:44.787Z,21.3
2022-09-24T12:37:47.264Z,21.3
2022-09-24T12:38:49.755Z,21.4
2022-09-24T12:39:52.269Z,21.3
2022-09-24T12:40:54.671Z,21.5
2022-09-24T12:41:56.868Z,21.3
2022-09-24T12:42:58.498Z,21.3
2022-09-24T12:44:00.710Z,21.3
2022-09-24T12:45:03.429Z,21.3
2022-09-24T12:46:05.548Z,21.4
2022-09-24T12:47:08.359Z,21.4
2022-09-24T12:48:10.846Z,21.3
2022-09-24T12:49:13.327Z,21.4
2022-09-24T12:50:15.283Z,21.4
2022-09-24T12:51:17.788Z,21.3
2022-09-24T12:52:19.979Z,21.4
2022-09-24T12:53:22.172Z,21.3
2022-09-24T12:54:24.374Z,21.3
2022-09-24T12:55:26.615Z,21.3
2022-09-24T12:56:28.892Z,21.3
2022-09-24T12:57:31.376Z,21.3
2022-09-24T12:58:33.870Z,21.3
2022-09-24T12:59:36.078Z,21.3
2022-09-24T13:00:38.255Z,21.3
2022-09-24T13:01:40.944Z,21.4
2022-09-24T13:02:44.518Z,21.3
2022-09-24T13:03:48.127Z,21.2
2022-09-24T13:04:50.373Z,21.4
2022-09-24T13:05:52.605Z,21.3
2022-09-24T13:06:55.158Z,21.4
2022-09-24T13:07:57.107Z,21.3
2022-09-24T13:08:59.589Z,21.3
2022-09-24T13:10:02.086Z,21.3
2022-09-24T13:11:03.470Z,21.3
2022-09-24T13:12:05.989Z,21.3
2022-09-24T13:13:07.916Z,21.4
2022-09-24T13:14:10.274Z,21.3
2022-09-24T13:15:13.057Z,21.3
2022-09-24T13:16:14.861Z,21.4
2022-09-24T13:17:17.443Z,21.4
2022-09-24T13:18:19.956Z,21.4
2022-09-24T13:19:21.873Z,21.4
2022-09-24T13:20:23.808Z,21.3
2022-09-24T13:21:25.739Z,21.4
2022-09-24T13:22:28.239Z,21.5
2022-09-24T13:23:30.153Z,21.4
2022-09-24T13:24:32.815Z,21.4
2022-09-24T13:25:35.029Z,21.3
2022-09-24T13:26:37.270Z,21.4
2022-09-24T13:27:39.705Z,21.4
2022-09-24T13:29:46.909Z,21.3
2022-09-24T13:30:48.932Z,21.4
2022-09-24T13:31:51.305Z,21.3
2022-09-24T13:32:53.788Z,21.3
2022-09-24T13:33:55.989Z,21.3
2022-09-24T13:34:58.514Z,21.3
2022-09-24T13:36:01.001Z,21.4
2022-09-24T13:37:02.950Z,21.4
2022-09-24T13:38:05.152Z,21.2
2022-09-24T13:39:07.440Z,21.3
2022-09-24T13:40:10.412Z,21.2
2022-09-24T13:41:13.157Z,21.4
2022-09-24T13:42:15.518Z,21.4
2022-09-24T13:43:17.891Z,21.3
2022-09-24T13:44:20.381Z,21.4
2022-09-24T13:45:22.567Z,21.4
2022-09-24T13:46:24.877Z,21.3
2022-09-24T13:47:27.614Z,21.4
2022-09-24T13:48:30.091Z,21.4
2022-09-24T13:49:32.315Z,21.4
2022-09-24T13:50:34.790Z,21.3
2022-09-24T13:51:36.998Z,21.3
2022-09-24T13:52:39.196Z,21.4
2022-09-24T13:53:41.689Z,21.3
2022-09-24T13:54:44.172Z,21.3
2022-09-24T13:55:46.656Z,21.4
2022-09-24T13:56:48.889Z,21.4
2022-09-24T13:57:51.393Z,21.3
2022-09-24T13:58:53.613Z,21.4
2022-09-24T13:59:55.810Z,21.3
2022-09-24T14:00:58.285Z,21.4
2022-09-24T14:02:00.674Z,21.4
2022-09-24T14:03:03.516Z,21.4
2022-09-24T14:04:05.766Z,21.3
2022-09-24T14:05:08.026Z,21.3